sensor_id;sensor_type;location;lat;lon;timestamp;pressure;altitude;pressure_sealevel;temperature;humidity
40838;BME280;29632;49.168;9.848;2022-12-28T00:01:23;97566.81;;;7.22;49.96
40838;BME280;29632;49.168;9.848;2022-12-28T00:03:50;97553.75;;;7.24;49.85
40838;BME280;29632;49.168;9.848;2022-12-28T00:06:16;97554.47;;;7.26;49.59
40838;BME280;29632;49.168;9.848;2022-12-28T00:08:42;97552.69;;;7.26;49.46
40838;BME280;29632;49.168;9.848;2022-12-28T00:11:16;97553.50;;;7.27;50.03
40838;BME280;29632;49.168;9.848;2022-12-28T00:13:42;97534.44;;;7.28;50.27
40838;BME280;29632;49.168;9.848;2022-12-28T00:18:54;97533.28;;;7.32;49.65
40838;BME280;29632;49.168;9.848;2022-12-28T00:21:20;97534.88;;;7.34;50.12
40838;BME280;29632;49.168;9.848;2022-12-28T00:23:54;97532.28;;;7.34;50.25
40838;BME280;29632;49.168;9.848;2022-12-28T00:26:20;97535.78;;;7.33;49.41
40838;BME280;29632;49.168;9.848;2022-12-28T00:28:46;97534.88;;;7.34;50.17
40838;BME280;29632;49.168;9.848;2022-12-28T00:31:12;97528.72;;;7.35;49.74
40838;BME280;29632;49.168;9.848;2022-12-28T00:33:38;97532.06;;;7.37;50.12
40838;BME280;29632;49.168;9.848;2022-12-28T00:36:04;97529.34;;;7.39;49.88
40838;BME280;29632;49.168;9.848;2022-12-28T00:38:30;97511.09;;;7.41;50.09
40838;BME280;29632;49.168;9.848;2022-12-28T00:40:57;97515.25;;;7.43;49.89
40838;BME280;29632;49.168;9.848;2022-12-28T00:43:23;97505.81;;;7.42;50.23
40838;BME280;29632;49.168;9.848;2022-12-28T00:45:48;97513.50;;;7.44;49.99
40838;BME280;29632;49.168;9.848;2022-12-28T00:48:15;97513.38;;;7.45;50.01
40838;BME280;29632;49.168;9.848;2022-12-28T00:50:41;97504.69;;;7.46;50.12
40838;BME280;29632;49.168;9.848;2022-12-28T00:53:07;97512.47;;;7.46;49.69
40838;BME280;29632;49.168;9.848;2022-12-28T00:55:33;97505.50;;;7.47;50.13
40838;BME280;29632;49.168;9.848;2022-12-28T00:57:59;97500.22;;;7.48;49.85
40838;BME280;29632;49.168;9.848;2022-12-28T01:00:25;97505.41;;;7.48;49.83
40838;BME280;29632;49.168;9.848;2022-12-28T01:02:51;97507.91;;;7.50;50.22
40838;BME280;29632;49.168;9.848;2022-12-28T01:05:17;97502.81;;;7.48;49.84
40838;BME280;29632;49.168;9.848;2022-12-28T01:07:43;97500.94;;;7.50;50.54
40838;BME280;29632;49.168;9.848;2022-12-28T01:10:08;97497.53;;;7.50;50.24
40838;BME280;29632;49.168;9.848;2022-12-28T01:12:35;97491.28;;;7.52;50.03
40838;BME280;29632;49.168;9.848;2022-12-28T01:15:02;97485.91;;;7.55;50.26
40838;BME280;29632;49.168;9.848;2022-12-28T01:17:28;97476.34;;;7.56;50.19
40838;BME280;29632;49.168;9.848;2022-12-28T01:19:54;97475.31;;;7.59;50.35
40838;BME280;29632;49.168;9.848;2022-12-28T01:22:20;97468.47;;;7.57;49.92
40838;BME280;29632;49.168;9.848;2022-12-28T01:24:46;97472.81;;;7.57;50.32
40838;BME280;29632;49.168;9.848;2022-12-28T01:27:11;97464.19;;;7.56;50.47
40838;BME280;29632;49.168;9.848;2022-12-28T01:29:37;97461.59;;;7.56;50.37
40838;BME280;29632;49.168;9.848;2022-12-28T01:32:03;97465.06;;;7.57;50.31
40838;BME280;29632;49.168;9.848;2022-12-28T01:34:28;97468.78;;;7.53;50.45
40838;BME280;29632;49.168;9.848;2022-12-28T01:36:54;97466.19;;;7.53;50.27
40838;BME280;29632;49.168;9.848;2022-12-28T01:39:20;97449.81;;;7.52;50.42
40838;BME280;29632;49.168;9.848;2022-12-28T01:41:45;97452.41;;;7.52;50.44
40838;BME280;29632;49.168;9.848;2022-12-28T01:49:12;97435.69;;;7.56;50.50
40838;BME280;29632;49.168;9.848;2022-12-28T01:54:12;97436.31;;;7.60;49.92
40838;BME280;29632;49.168;9.848;2022-12-28T01:56:38;97434.56;;;7.61;50.32
40838;BME280;29632;49.168;9.848;2022-12-28T01:59:05;97426.78;;;7.61;50.12
40838;BME280;29632;49.168;9.848;2022-12-28T02:01:31;97420.63;;;7.62;50.34
40838;BME280;29632;49.168;9.848;2022-12-28T02:03:57;97406.97;;;7.60;50.42
40838;BME280;29632;49.168;9.848;2022-12-28T02:06:22;97406.25;;;7.57;50.62
40838;BME280;29632;49.168;9.848;2022-12-28T02:09:03;97397.88;;;7.54;50.24
40838;BME280;29632;49.168;9.848;2022-12-28T02:11:30;97387.91;;;7.48;50.59
40838;BME280;29632;49.168;9.848;2022-12-28T02:13:56;97391.69;;;7.44;50.40
40838;BME280;29632;49.168;9.848;2022-12-28T02:16:23;97385.78;;;7.42;50.28
40838;BME280;29632;49.168;9.848;2022-12-28T02:18:48;97376.22;;;7.42;50.80
40838;BME280;29632;49.168;9.848;2022-12-28T02:35:12;97367.69;;;7.53;50.08
40838;BME280;29632;49.168;9.848;2022-12-28T02:37:52;97351.91;;;7.56;50.19
40838;BME280;29632;49.168;9.848;2022-12-28T02:40:22;97360.28;;;7.60;50.49
40838;BME280;29632;49.168;9.848;2022-12-28T02:42:50;97354.19;;;7.61;50.73
40838;BME280;29632;49.168;9.848;2022-12-28T02:48:20;97357.50;;;7.63;50.37
40838;BME280;29632;49.168;9.848;2022-12-28T02:54:02;97340.75;;;7.67;50.29
40838;BME280;29632;49.168;9.848;2022-12-28T02:56:42;97332.06;;;7.68;50.38
40838;BME280;29632;49.168;9.848;2022-12-28T03:07:14;97323.03;;;7.85;50.30
40838;BME280;29632;49.168;9.848;2022-12-28T03:10:30;97317.50;;;7.89;50.50
40838;BME280;29632;49.168;9.848;2022-12-28T03:13:02;97318.84;;;7.95;50.10
40838;BME280;29632;49.168;9.848;2022-12-28T03:15:33;97320.34;;;7.98;50.02
40838;BME280;29632;49.168;9.848;2022-12-28T03:18:15;97312.56;;;7.98;50.48
40838;BME280;29632;49.168;9.848;2022-12-28T03:21:03;97308.19;;;7.98;50.29
40838;BME280;29632;49.168;9.848;2022-12-28T03:23:51;97309.06;;;7.99;50.53
40838;BME280;29632;49.168;9.848;2022-12-28T03:26:35;97289.94;;;8.00;50.59
40838;BME280;29632;49.168;9.848;2022-12-28T03:29:23;97301.00;;;8.02;50.29
40838;BME280;29632;49.168;9.848;2022-12-28T03:32:08;97297.38;;;8.04;50.37
40838;BME280;29632;49.168;9.848;2022-12-28T03:34:35;97299.16;;;8.04;50.16
40838;BME280;29632;49.168;9.848;2022-12-28T03:37:23;97306.19;;;8.02;50.31
40838;BME280;29632;49.168;9.848;2022-12-28T03:39:51;97305.28;;;8.03;50.46
40838;BME280;29632;49.168;9.848;2022-12-28T03:46:05;97287.81;;;8.05;50.35
40838;BME280;29632;49.168;9.848;2022-12-28T03:48:30;97279.81;;;8.08;49.93
40838;BME280;29632;49.168;9.848;2022-12-28T03:50:56;97268.38;;;8.10;50.41
40838;BME280;29632;49.168;9.848;2022-12-28T03:53:26;97265.44;;;8.15;50.01
40838;BME280;29632;49.168;9.848;2022-12-28T03:56:14;97253.53;;;8.12;50.45
40838;BME280;29632;49.168;9.848;2022-12-28T03:58:40;97255.66;;;8.07;50.61
40838;BME280;29632;49.168;9.848;2022-12-28T04:01:05;97259.41;;;8.03;50.23
40838;BME280;29632;49.168;9.848;2022-12-28T04:03:31;97262.00;;;8.03;50.64
40838;BME280;29632;49.168;9.848;2022-12-28T04:05:57;97256.09;;;8.01;50.75
40838;BME280;29632;49.168;9.848;2022-12-28T04:08:23;97263.66;;;8.04;50.51
40838;BME280;29632;49.168;9.848;2022-12-28T04:10:48;97260.94;;;8.06;50.62
40838;BME280;29632;49.168;9.848;2022-12-28T04:13:14;97264.13;;;8.09;50.34
40838;BME280;29632;49.168;9.848;2022-12-28T04:15:40;97261.31;;;8.12;50.21
40838;BME280;29632;49.168;9.848;2022-12-28T04:18:05;97264.50;;;8.16;50.81
40838;BME280;29632;49.168;9.848;2022-12-28T04:20:31;97270.16;;;8.21;50.65
40838;BME280;29632;49.168;9.848;2022-12-28T04:22:57;97264.00;;;8.22;49.96
40838;BME280;29632;49.168;9.848;2022-12-28T04:25:22;97260.72;;;8.20;50.26
40838;BME280;29632;49.168;9.848;2022-12-28T04:27:48;97255.75;;;8.17;50.27
40838;BME280;29632;49.168;9.848;2022-12-28T04:30:14;97253.97;;;8.18;50.39
40838;BME280;29632;49.168;9.848;2022-12-28T04:32:39;97250.56;;;8.17;50.25
40838;BME280;29632;49.168;9.848;2022-12-28T04:35:05;97247.84;;;8.19;50.39
40838;BME280;29632;49.168;9.848;2022-12-28T04:37:31;97255.31;;;8.23;50.16
40838;BME280;29632;49.168;9.848;2022-12-28T04:39:56;97247.25;;;8.26;50.05
40838;BME280;29632;49.168;9.848;2022-12-28T04:42:23;97248.69;;;8.30;50.27
40838;BME280;29632;49.168;9.848;2022-12-28T04:44:49;97239.00;;;8.32;50.22
40838;BME280;29632;49.168;9.848;2022-12-28T04:47:14;97236.53;;;8.31;50.72
40838;BME280;29632;49.168;9.848;2022-12-28T04:49:40;97224.38;;;8.31;50.45
40838;BME280;29632;49.168;9.848;2022-12-28T04:52:06;97226.84;;;8.33;50.66
40838;BME280;29632;49.168;9.848;2022-12-28T04:54:31;97225.09;;;8.34;49.83
40838;BME280;29632;49.168;9.848;2022-12-28T04:56:57;97224.97;;;8.35;50.60
40838;BME280;29632;49.168;9.848;2022-12-28T04:59:22;97218.84;;;8.36;50.56
40838;BME280;29632;49.168;9.848;2022-12-28T05:01:48;97221.31;;;8.38;50.40
40838;BME280;29632;49.168;9.848;2022-12-28T05:04:14;97221.19;;;8.39;50.53
40838;BME280;29632;49.168;9.848;2022-12-28T05:06:39;97210.94;;;8.38;49.86
40838;BME280;29632;49.168;9.848;2022-12-28T05:09:05;97204.94;;;8.37;50.09
40838;BME280;29632;49.168;9.848;2022-12-28T05:11:30;97202.22;;;8.39;50.31
40838;BME280;29632;49.168;9.848;2022-12-28T05:13:56;97200.56;;;8.38;50.16
40838;BME280;29632;49.168;9.848;2022-12-28T05:16:23;97203.25;;;8.36;50.45
40838;BME280;29632;49.168;9.848;2022-12-28T05:18:49;97197.50;;;8.32;50.20
40838;BME280;29632;49.168;9.848;2022-12-28T05:21:20;97196.78;;;8.30;50.87
40838;BME280;29632;49.168;9.848;2022-12-28T05:23:46;97204.56;;;8.30;50.24
40838;BME280;29632;49.168;9.848;2022-12-28T05:26:18;97201.88;;;8.32;50.64
40838;BME280;29632;49.168;9.848;2022-12-28T05:28:44;97202.56;;;8.34;50.47
40838;BME280;29632;49.168;9.848;2022-12-28T05:31:11;97210.81;;;8.39;50.62
40838;BME280;29632;49.168;9.848;2022-12-28T05:33:38;97200.09;;;8.44;50.18
40838;BME280;29632;49.168;9.848;2022-12-28T05:36:09;97200.69;;;8.47;50.14
40838;BME280;29632;49.168;9.848;2022-12-28T05:38:35;97200.31;;;8.52;50.44
40838;BME280;29632;49.168;9.848;2022-12-28T05:41:06;97196.56;;;8.56;50.03
40838;BME280;29632;49.168;9.848;2022-12-28T05:43:32;97198.66;;;8.62;50.07
40838;BME280;29632;49.168;9.848;2022-12-28T05:46:00;97204.44;;;8.66;50.02
40838;BME280;29632;49.168;9.848;2022-12-28T05:48:29;97194.75;;;8.68;50.14
40838;BME280;29632;49.168;9.848;2022-12-28T05:51:00;97192.84;;;8.70;49.66
40838;BME280;29632;49.168;9.848;2022-12-28T05:53:27;97197.09;;;8.71;49.65
40838;BME280;29632;49.168;9.848;2022-12-28T05:56:02;97205.69;;;8.72;49.88
40838;BME280;29632;49.168;9.848;2022-12-28T05:58:28;97202.19;;;8.73;49.83
40838;BME280;29632;49.168;9.848;2022-12-28T06:01:02;97197.78;;;8.73;49.89
40838;BME280;29632;49.168;9.848;2022-12-28T06:03:28;97197.69;;;8.75;49.95
40838;BME280;29632;49.168;9.848;2022-12-28T06:05:54;97199.06;;;8.79;50.18
40838;BME280;29632;49.168;9.848;2022-12-28T06:08:19;97200.63;;;8.81;50.18
40838;BME280;29632;49.168;9.848;2022-12-28T06:10:45;97200.38;;;8.84;50.28
40838;BME280;29632;49.168;9.848;2022-12-28T06:13:10;97193.16;;;8.88;50.35
40838;BME280;29632;49.168;9.848;2022-12-28T06:15:36;97180.88;;;8.90;49.93
40838;BME280;29632;49.168;9.848;2022-12-28T06:18:02;97175.91;;;8.87;50.14
40838;BME280;29632;49.168;9.848;2022-12-28T06:20:27;97172.03;;;8.81;50.38
40838;BME280;29632;49.168;9.848;2022-12-28T06:22:53;97175.84;;;8.77;50.17
40838;BME280;29632;49.168;9.848;2022-12-28T06:25:18;97182.91;;;8.75;50.56
40838;BME280;29632;49.168;9.848;2022-12-28T06:27:44;97176.91;;;8.75;50.59
40838;BME280;29632;49.168;9.848;2022-12-28T06:30:10;97175.97;;;8.76;49.94
40838;BME280;29632;49.168;9.848;2022-12-28T06:32:36;97175.56;;;8.80;50.15
40838;BME280;29632;49.168;9.848;2022-12-28T06:35:02;97171.94;;;8.83;50.50
40838;BME280;29632;49.168;9.848;2022-12-28T06:37:28;97167.44;;;8.85;50.60
40838;BME280;29632;49.168;9.848;2022-12-28T06:39:53;97154.19;;;8.88;49.96
40838;BME280;29632;49.168;9.848;2022-12-28T06:42:19;97147.78;;;8.92;50.04
40838;BME280;29632;49.168;9.848;2022-12-28T06:44:44;97148.50;;;8.94;49.95
40838;BME280;29632;49.168;9.848;2022-12-28T06:47:10;97145.66;;;8.97;49.77
40838;BME280;29632;49.168;9.848;2022-12-28T06:49:36;97140.56;;;8.96;50.01
40838;BME280;29632;49.168;9.848;2022-12-28T06:52:02;97146.47;;;8.98;49.84
40838;BME280;29632;49.168;9.848;2022-12-28T06:54:27;97148.25;;;8.97;50.31
40838;BME280;29632;49.168;9.848;2022-12-28T06:56:53;97147.31;;;8.98;50.20
40838;BME280;29632;49.168;9.848;2022-12-28T06:59:19;97152.63;;;8.97;50.17
40838;BME280;29632;49.168;9.848;2022-12-28T07:01:44;97147.56;;;8.95;50.26
40838;BME280;29632;49.168;9.848;2022-12-28T07:04:10;97153.56;;;8.96;50.37
40838;BME280;29632;49.168;9.848;2022-12-28T07:06:41;97159.72;;;8.95;50.02
40838;BME280;29632;49.168;9.848;2022-12-28T07:09:12;97143.19;;;8.96;50.42
40838;BME280;29632;49.168;9.848;2022-12-28T07:11:39;97143.75;;;8.99;49.88
40838;BME280;29632;49.168;9.848;2022-12-28T07:14:04;97137.63;;;9.00;50.55
40838;BME280;29632;49.168;9.848;2022-12-28T07:16:30;97139.97;;;9.03;49.84
40838;BME280;29632;49.168;9.848;2022-12-28T07:18:57;97146.09;;;9.02;49.83
40838;BME280;29632;49.168;9.848;2022-12-28T07:21:33;97139.25;;;9.01;50.33
40838;BME280;29632;49.168;9.848;2022-12-28T07:23:59;97142.41;;;9.05;50.10
40838;BME280;29632;49.168;9.848;2022-12-28T07:26:27;97144.78;;;9.08;50.45
40838;BME280;29632;49.168;9.848;2022-12-28T07:28:55;97137.94;;;9.07;50.12
40838;BME280;29632;49.168;9.848;2022-12-28T07:31:29;97128.72;;;9.03;50.08
40838;BME280;29632;49.168;9.848;2022-12-28T07:33:56;97134.78;;;9.03;50.25
40838;BME280;29632;49.168;9.848;2022-12-28T07:36:23;97132.88;;;9.05;50.22
40838;BME280;29632;49.168;9.848;2022-12-28T07:38:49;97126.47;;;9.10;50.52
40838;BME280;29632;49.168;9.848;2022-12-28T07:41:20;97132.34;;;9.12;50.32
40838;BME280;29632;49.168;9.848;2022-12-28T07:43:46;97124.19;;;9.16;50.68
40838;BME280;29632;49.168;9.848;2022-12-28T07:46:14;97129.94;;;9.20;49.94
40838;BME280;29632;49.168;9.848;2022-12-28T07:48:41;97122.47;;;9.26;50.34
40838;BME280;29632;49.168;9.848;2022-12-28T07:51:14;97123.97;;;9.29;50.07
40838;BME280;29632;49.168;9.848;2022-12-28T07:53:41;97122.06;;;9.31;50.05
40838;BME280;29632;49.168;9.848;2022-12-28T07:56:07;97122.91;;;9.32;49.73
40838;BME280;29632;49.168;9.848;2022-12-28T07:58:33;97119.34;;;9.33;50.26
40838;BME280;29632;49.168;9.848;2022-12-28T08:01:06;97121.00;;;9.34;50.36
40838;BME280;29632;49.168;9.848;2022-12-28T08:03:33;97117.44;;;9.35;50.40
40838;BME280;29632;49.168;9.848;2022-12-28T08:06:18;97122.41;;;9.38;50.29
40838;BME280;29632;49.168;9.848;2022-12-28T08:08:45;97119.53;;;9.41;49.82
40838;BME280;29632;49.168;9.848;2022-12-28T08:11:14;97114.34;;;9.41;50.01
40838;BME280;29632;49.168;9.848;2022-12-28T08:13:42;97120.25;;;9.43;49.82
40838;BME280;29632;49.168;9.848;2022-12-28T08:16:10;97120.00;;;9.46;49.91
40838;BME280;29632;49.168;9.848;2022-12-28T08:18:36;97108.50;;;9.49;50.23
40838;BME280;29632;49.168;9.848;2022-12-28T08:21:04;97106.06;;;9.47;50.16
40838;BME280;29632;49.168;9.848;2022-12-28T08:23:30;97112.44;;;9.43;50.36
40838;BME280;29632;49.168;9.848;2022-12-28T08:25:56;97105.84;;;9.39;50.01
40838;BME280;29632;49.168;9.848;2022-12-28T08:28:28;97109.28;;;9.39;50.28
40838;BME280;29632;49.168;9.848;2022-12-28T08:30:54;97105.16;;;9.37;50.22
40838;BME280;29632;49.168;9.848;2022-12-28T08:33:20;97100.78;;;9.37;50.33
40838;BME280;29632;49.168;9.848;2022-12-28T08:35:45;97093.69;;;9.39;50.33
40838;BME280;29632;49.168;9.848;2022-12-28T08:38:11;97104.06;;;9.39;50.60
40838;BME280;29632;49.168;9.848;2022-12-28T08:40:36;97103.25;;;9.39;50.41
40838;BME280;29632;49.168;9.848;2022-12-28T08:43:02;97111.88;;;9.39;50.40
40838;BME280;29632;49.168;9.848;2022-12-28T08:45:28;97109.97;;;9.41;50.36
40838;BME280;29632;49.168;9.848;2022-12-28T08:47:53;97104.50;;;9.44;50.45
40838;BME280;29632;49.168;9.848;2022-12-28T08:50:19;97102.47;;;9.48;50.21
40838;BME280;29632;49.168;9.848;2022-12-28T08:52:45;97104.81;;;9.51;50.41
40838;BME280;29632;49.168;9.848;2022-12-28T08:55:10;97107.31;;;9.53;50.21
40838;BME280;29632;49.168;9.848;2022-12-28T08:57:36;97094.19;;;9.54;50.58
40838;BME280;29632;49.168;9.848;2022-12-28T09:00:04;97092.94;;;9.58;50.52
40838;BME280;29632;49.168;9.848;2022-12-28T09:02:30;97097.91;;;9.61;50.49
40838;BME280;29632;49.168;9.848;2022-12-28T09:04:56;97104.22;;;9.69;50.69
40838;BME280;29632;49.168;9.848;2022-12-28T09:07:21;97096.97;;;9.72;50.61
40838;BME280;29632;49.168;9.848;2022-12-28T09:09:47;97100.00;;;9.77;50.65
40838;BME280;29632;49.168;9.848;2022-12-28T09:12:13;97096.44;;;9.78;50.70
40838;BME280;29632;49.168;9.848;2022-12-28T09:14:38;97091.81;;;9.82;50.42
40838;BME280;29632;49.168;9.848;2022-12-28T09:17:04;97097.31;;;9.89;50.64
40838;BME280;29632;49.168;9.848;2022-12-28T09:19:29;97102.00;;;9.95;50.30
40838;BME280;29632;49.168;9.848;2022-12-28T09:21:55;97094.63;;;10.00;50.54
40838;BME280;29632;49.168;9.848;2022-12-28T09:24:21;97089.84;;;10.05;50.18
40838;BME280;29632;49.168;9.848;2022-12-28T09:26:47;97092.88;;;10.10;50.47
40838;BME280;29632;49.168;9.848;2022-12-28T09:29:15;97087.53;;;10.12;50.42
40838;BME280;29632;49.168;9.848;2022-12-28T09:31:40;97092.75;;;10.12;50.56
40838;BME280;29632;49.168;9.848;2022-12-28T09:34:07;97089.03;;;10.14;50.26
40838;BME280;29632;49.168;9.848;2022-12-28T09:36:40;97085.34;;;10.17;50.40
40838;BME280;29632;49.168;9.848;2022-12-28T09:39:13;97087.28;;;10.25;50.27
40838;BME280;29632;49.168;9.848;2022-12-28T09:55:40;97077.88;;;10.53;50.12
40838;BME280;29632;49.168;9.848;2022-12-28T09:58:14;97079.25;;;10.57;50.32
40838;BME280;29632;49.168;9.848;2022-12-28T10:00:47;97065.56;;;10.65;50.33
40838;BME280;29632;49.168;9.848;2022-12-28T10:03:19;97066.66;;;10.72;50.02
40838;BME280;29632;49.168;9.848;2022-12-28T10:05:47;97070.22;;;10.81;50.13
40838;BME280;29632;49.168;9.848;2022-12-28T10:08:15;97063.75;;;10.85;50.01
40838;BME280;29632;49.168;9.848;2022-12-28T10:10:41;97058.94;;;10.90;50.17
40838;BME280;29632;49.168;9.848;2022-12-28T10:13:26;97064.28;;;10.98;49.99
40838;BME280;29632;49.168;9.848;2022-12-28T10:15:53;97057.16;;;11.00;50.25
40838;BME280;29632;49.168;9.848;2022-12-28T10:18:24;97056.06;;;11.03;50.20
40838;BME280;29632;49.168;9.848;2022-12-28T10:20:50;97054.28;;;11.03;49.98
40838;BME280;29632;49.168;9.848;2022-12-28T10:23:25;97045.19;;;11.07;50.42
40838;BME280;29632;49.168;9.848;2022-12-28T10:25:53;97039.44;;;11.13;50.22
40838;BME280;29632;49.168;9.848;2022-12-28T10:28:21;97031.03;;;11.20;50.08
40838;BME280;29632;49.168;9.848;2022-12-28T10:31:06;97028.16;;;11.23;50.07
40838;BME280;29632;49.168;9.848;2022-12-28T10:33:36;97024.59;;;11.24;50.30
40838;BME280;29632;49.168;9.848;2022-12-28T10:36:03;97013.72;;;11.28;50.29
40838;BME280;29632;49.168;9.848;2022-12-28T10:38:30;97016.59;;;11.35;50.27
40838;BME280;29632;49.168;9.848;2022-12-28T10:41:02;97003.38;;;11.46;50.16
40838;BME280;29632;49.168;9.848;2022-12-28T10:43:35;97005.78;;;11.58;50.14
40838;BME280;29632;49.168;9.848;2022-12-28T10:46:02;96995.84;;;11.71;50.20
40838;BME280;29632;49.168;9.848;2022-12-28T10:48:31;96996.69;;;11.89;49.83
40838;BME280;29632;49.168;9.848;2022-12-28T10:51:24;96994.28;;;12.06;49.48
40838;BME280;29632;49.168;9.848;2022-12-28T10:53:52;96986.69;;;12.13;49.66
40838;BME280;29632;49.168;9.848;2022-12-28T10:56:29;96978.09;;;12.20;49.73
40838;BME280;29632;49.168;9.848;2022-12-28T11:01:37;96977.72;;;12.51;49.26
40838;BME280;29632;49.168;9.848;2022-12-28T11:04:06;96964.25;;;12.64;49.53
40838;BME280;29632;49.168;9.848;2022-12-28T11:06:55;96962.78;;;12.88;49.19
40838;BME280;29632;49.168;9.848;2022-12-28T11:09:32;96959.19;;;13.15;48.65
40838;BME280;29632;49.168;9.848;2022-12-28T11:12:23;96955.59;;;13.42;48.55
40838;BME280;29632;49.168;9.848;2022-12-28T11:14:49;96962.03;;;13.56;48.34
40838;BME280;29632;49.168;9.848;2022-12-28T11:17:22;96953.84;;;13.59;48.37
40838;BME280;29632;49.168;9.848;2022-12-28T11:19:50;96950.91;;;13.62;48.56
40838;BME280;29632;49.168;9.848;2022-12-28T11:22:22;96946.22;;;13.74;48.65
40838;BME280;29632;49.168;9.848;2022-12-28T11:24:48;96943.78;;;13.81;48.49
40838;BME280;29632;49.168;9.848;2022-12-28T11:27:16;96945.41;;;13.90;48.62
40838;BME280;29632;49.168;9.848;2022-12-28T11:29:45;96945.75;;;13.95;48.27
40838;BME280;29632;49.168;9.848;2022-12-28T11:32:20;96945.94;;;14.02;48.62
40838;BME280;29632;49.168;9.848;2022-12-28T11:34:47;96939.69;;;14.03;48.65
40838;BME280;29632;49.168;9.848;2022-12-28T11:37:14;96931.53;;;14.06;48.72
40838;BME280;29632;49.168;9.848;2022-12-28T11:39:47;96937.56;;;14.06;48.67
40838;BME280;29632;49.168;9.848;2022-12-28T11:45:14;96921.72;;;14.00;48.68
40838;BME280;29632;49.168;9.848;2022-12-28T11:47:41;96911.25;;;14.00;48.83
40838;BME280;29632;49.168;9.848;2022-12-28T11:53:06;96920.09;;;14.07;48.77
40838;BME280;29632;49.168;9.848;2022-12-28T11:55:57;96913.03;;;14.07;48.93
40838;BME280;29632;49.168;9.848;2022-12-28T12:00:53;96919.59;;;14.20;48.72
40838;BME280;29632;49.168;9.848;2022-12-28T12:03:19;96900.59;;;14.26;48.74
40838;BME280;29632;49.168;9.848;2022-12-28T12:05:49;96901.44;;;14.26;48.75
40838;BME280;29632;49.168;9.848;2022-12-28T12:10:47;96898.00;;;14.18;48.86
40838;BME280;29632;49.168;9.848;2022-12-28T12:15:55;96893.88;;;14.23;49.09
40838;BME280;29632;49.168;9.848;2022-12-28T12:18:24;96886.19;;;14.22;48.90
40838;BME280;29632;49.168;9.848;2022-12-28T12:20:57;96894.06;;;14.22;48.83
40838;BME280;29632;49.168;9.848;2022-12-28T12:23:27;96886.88;;;14.15;49.14
40838;BME280;29632;49.168;9.848;2022-12-28T12:25:57;96884.56;;;14.04;49.23
40838;BME280;29632;49.168;9.848;2022-12-28T12:28:39;96877.22;;;14.00;49.29
40838;BME280;29632;49.168;9.848;2022-12-28T12:31:07;96872.94;;;13.98;49.37
40838;BME280;29632;49.168;9.848;2022-12-28T12:33:36;96879.00;;;13.99;49.08
40838;BME280;29632;49.168;9.848;2022-12-28T12:39:03;96862.94;;;13.94;49.14
40838;BME280;29632;49.168;9.848;2022-12-28T12:42:01;96860.81;;;13.97;49.28
40838;BME280;29632;49.168;9.848;2022-12-28T12:54:59;96851.31;;;14.05;48.94
40838;BME280;29632;49.168;9.848;2022-12-28T13:00:16;96837.75;;;14.09;49.15
40838;BME280;29632;49.168;9.848;2022-12-28T13:05:21;96829.56;;;14.04;48.90
40838;BME280;29632;49.168;9.848;2022-12-28T13:07:48;96839.56;;;14.01;48.81
40838;BME280;29632;49.168;9.848;2022-12-28T13:10:17;96832.19;;;13.96;48.77
40838;BME280;29632;49.168;9.848;2022-12-28T13:12:45;96828.75;;;13.95;48.81
40838;BME280;29632;49.168;9.848;2022-12-28T13:15:15;96827.47;;;14.00;48.82
40838;BME280;29632;49.168;9.848;2022-12-28T13:20:29;96822.88;;;14.02;48.58
40838;BME280;29632;49.168;9.848;2022-12-28T13:22:55;96817.47;;;14.03;48.67
40838;BME280;29632;49.168;9.848;2022-12-28T13:25:32;96819.25;;;14.19;48.88
40838;BME280;29632;49.168;9.848;2022-12-28T13:28:02;96812.34;;;14.34;48.58
40838;BME280;29632;49.168;9.848;2022-12-28T13:30:28;96811.50;;;14.50;48.54
40838;BME280;29632;49.168;9.848;2022-12-28T13:32:56;96804.94;;;14.54;48.41
40838;BME280;29632;49.168;9.848;2022-12-28T13:35:33;96802.47;;;14.53;48.32
40838;BME280;29632;49.168;9.848;2022-12-28T13:40:33;96810.56;;;14.35;48.54
40838;BME280;29632;49.168;9.848;2022-12-28T13:43:40;96805.16;;;14.28;48.60
40838;BME280;29632;49.168;9.848;2022-12-28T13:46:12;96799.13;;;14.20;48.73
40838;BME280;29632;49.168;9.848;2022-12-28T13:48:42;96795.38;;;14.14;48.71
40838;BME280;29632;49.168;9.848;2022-12-28T13:51:12;96790.59;;;14.09;48.85
40838;BME280;29632;49.168;9.848;2022-12-28T13:53:39;96791.28;;;14.03;48.84
40838;BME280;29632;49.168;9.848;2022-12-28T13:56:07;96788.00;;;14.01;48.96
40838;BME280;29632;49.168;9.848;2022-12-28T13:58:38;96790.28;;;13.96;48.66
40838;BME280;29632;49.168;9.848;2022-12-28T14:01:08;96785.38;;;14.01;48.60
40838;BME280;29632;49.168;9.848;2022-12-28T14:03:37;96787.66;;;14.12;48.70
40838;BME280;29632;49.168;9.848;2022-12-28T14:06:04;96778.31;;;14.18;48.52
40838;BME280;29632;49.168;9.848;2022-12-28T14:08:35;96785.69;;;14.23;48.08
40838;BME280;29632;49.168;9.848;2022-12-28T14:11:02;96782.72;;;14.26;48.09
40838;BME280;29632;49.168;9.848;2022-12-28T14:13:30;96783.72;;;14.25;48.40
40838;BME280;29632;49.168;9.848;2022-12-28T14:15:56;96789.28;;;14.22;48.28
40838;BME280;29632;49.168;9.848;2022-12-28T14:18:22;96784.38;;;14.19;48.29
40838;BME280;29632;49.168;9.848;2022-12-28T14:20:52;96792.38;;;14.17;48.30
40838;BME280;29632;49.168;9.848;2022-12-28T14:23:22;96781.09;;;14.08;48.26
40838;BME280;29632;49.168;9.848;2022-12-28T14:25:49;96791.09;;;14.05;48.63
40838;BME280;29632;49.168;9.848;2022-12-28T14:28:19;96779.47;;;13.99;48.45
40838;BME280;29632;49.168;9.848;2022-12-28T14:30:51;96780.97;;;13.93;48.49
40838;BME280;29632;49.168;9.848;2022-12-28T14:33:19;96773.44;;;13.90;48.29
40838;BME280;29632;49.168;9.848;2022-12-28T14:35:51;96773.75;;;13.87;47.99
40838;BME280;29632;49.168;9.848;2022-12-28T14:38:44;96773.47;;;13.82;48.68
40838;BME280;29632;49.168;9.848;2022-12-28T14:41:21;96773.28;;;13.84;48.58
40838;BME280;29632;49.168;9.848;2022-12-28T14:43:52;96771.16;;;13.79;48.39
40838;BME280;29632;49.168;9.848;2022-12-28T14:46:36;96756.94;;;13.73;48.09
40838;BME280;29632;49.168;9.848;2022-12-28T14:54:26;96756.59;;;13.60;48.23
40838;BME280;29632;49.168;9.848;2022-12-28T14:57:04;96755.47;;;13.54;48.33
40838;BME280;29632;49.168;9.848;2022-12-28T14:59:42;96743.50;;;13.52;48.52